Aérodrome :
LOGIN :

S'inscrire | Disclaimer

   EN    FR    IT 

 










Légende :    VFR   VFR Marginal   IFR   IFR Intensif   IFR Très Intensif
Visi : 
Plafond : 
>= 8 km
>= 3000ft
5 à 8 km
1000 à 3000 ft
1500m à 5 km
500 à 1000 ft
800 à 1500m
200 à 500 ft
< 800m
< 200 ft
Symboles :   Orages  Brouillard  Fortes neiges  Fortes précipitations  Vent > 20 kt
SIGMETs :   Divers  Orages  Givrage  Turbulence  Onde Orograph.  Cendres Volcan.






- Altitude de l'aérodrome : 100 ft


EBDT - Schaffen

DERNIER METAR :
  • 282055Z AUTO 22003KT 9000 FEW029/// BKN120/// 09/07 Q1013 BLU

METARs EXPIRÉS :
  • 282025Z AUTO 22003KT 9000 BKN027/// BKN120/// BKN160/// 09/08 Q1013 BLU
  • 282017Z AUTO 23003KT 9999 BKN025/// BKN140/// BKN160/// 09/08 Q1013 BLU
  • 281955Z AUTO 23003KT 9999 BKN024/// 09/08 Q1013 WHT
  • 281925Z AUTO VRB02KT 9999 BKN023/// 09/08 Q1013 WHT
  • 281855Z AUTO 21003KT 9999 OVC017/// 09/08 Q1012 WHT
  • 281825Z AUTO VRB02KT 9999 OVC019/// 09/08 Q1012 WHT

Prévision TAF périmée.



MET'MAP, la Météo Aéronautique d'un coup d'oeil ! - Copyright ORBIFLY Décembre 2007 - Disclaimer

ORBIFLY MET'MAP TEAM :

Programmation & Développement : Alexandra Zaïnal
Sur une idée originale de : Baudouin d'Aumeries
Soutien technique & logistique : Manuel Goepfert
Assistance : Marc-Olivier Méhu




SOURCES & CREDITS :

   NOAA